Point Mugu Naval Air Station (Naval Base Ventura Co) Point Mugu US
ICAO: KNTD
IATA: NTD
Category: Medium
Scheduled Services: No

Elevation: 13 ft
TransAlt. 18000 ft.

Airport Communications:
APP/DEP:128.65
ATIS:125.55
CLNC DEL:120.75
GND:121.6
ANG OPS:30.56
BASE OPS:26.75
PMSV METRO:38.635
HAWTHORNE RDO:112.5
TWR:124.85

KNTD Zoom In..

If you have problems with the map follow the link
https://www.worldairports.se/pages/airport.php?
ICAO=KNTD

Runways:

(A) RW 03 length 11102 ft width 200 ft
---- / hdg 30

(B) RW 09 length 5502 ft width 200 ft
---- / hdg 91

(C) RW 21 length 11102 ft width 200 ft
ILS 109.30 / hdg 210

(D) RW 27 length 5502 ft width 200 ft
---- / hdg 271

Location; KNTD
Day. 25 / Time. 23.52 Zulu
* Altimeter: 30.02
* Temperature: 15° c. 59°f.
* Wind from: 200° Speed 04 kn.
Dewpoint: 11° c.
Visibility: 5 Statute Miles.
Clouds: Scattered 24000 ft.
Conditions: Haze.

KNTD 252352Z 20004KT 5SM HZ SCT240 15/11 A3002 RMK SLP166 T01560112 10163 20149 57001


Wind From 200°
Speed 04 kn.

 
 
jpsmedia worldairports.se 2020   terms of use